Time;durP1;ratioP1;P1;durP2;ratioP2;P2;SDS_P1;SDS_P2;PMS_P1;PMS_P2;Temp;Humidity;BMP_temperature;BMP_pressure;BME280_temperature;BME280_humidity;BME280_pressure;Samples;Min_cycle;Max_cycle;Signal;HPM_P1;HPM_P2
2022/05/25 00:01:48;;;;;;;7.10;5.60;;;;;;;10.50;83.62;97112.73;109753;1251;59685;-67
2022/05/25 00:04:18;;;;;;;7.20;5.60;;;;;;;10.49;83.71;97111.10;110091;1250;59691;-68
2022/05/25 00:06:49;;;;;;;6.70;5.50;;;;;;;10.50;83.41;97119.23;109943;1250;70034;-73
2022/05/25 00:09:20;;;;;;;7.90;6.40;;;;;;;10.51;84.18;97124.86;109935;1250;68414;-68
2022/05/25 00:11:50;;;;;;;12.70;9.10;;;;;;;10.47;82.22;97128.98;109987;1250;69112;-69
2022/05/25 00:14:20;;;;;;;;;;;;;;;10.35;80.04;97127.11;110035;1250;59748;-67
2022/05/25 00:16:52;;;;;;;10.10;6.80;;;;;;;10.24;81.04;97119.96;110032;1250;59666;-67
2022/05/25 00:22:10;;;;;;;10.40;7.40;;;;;;;10.12;83.80;97122.20;110017;1250;68372;-67
2022/05/25 00:24:40;;;;;;;;;;;;;;;10.07;83.94;97127.15;109876;1250;68825;-68
2022/05/25 00:27:11;;;;;;;8.90;7.20;;;;;;;10.02;83.86;97120.70;110027;1250;59822;-69
2022/05/25 00:29:41;;;;;;;9.70;7.20;;;;;;;9.98;83.01;97112.99;109968;1249;59688;-70
2022/05/25 00:32:11;;;;;;;8.40;6.60;;;;;;;9.98;82.21;97112.69;110070;1250;70578;-69
2022/05/25 00:34:42;;;;;;;6.50;5.00;;;;;;;10.01;82.21;97116.98;109972;1250;67928;-68
2022/05/25 00:37:13;;;;;;;6.50;5.40;;;;;;;10.04;81.79;97119.32;109979;1250;68671;-68
2022/05/25 00:39:44;;;;;;;7.30;6.20;;;;;;;10.07;81.96;97122.91;109820;1251;59680;-68
2022/05/25 00:42:16;;;;;;;6.30;5.60;;;;;;;10.13;83.62;97122.52;109948;1250;59739;-68
2022/05/25 00:44:45;;;;;;;7.70;6.10;;;;;;;10.16;82.19;97123.98;109929;1250;71520;-69
2022/05/25 00:47:22;;;;;;;9.20;5.50;;;;;;;10.20;82.05;97125.23;109966;1250;67940;-74
2022/05/25 00:49:53;;;;;;;5.90;4.90;;;;;;;10.25;81.39;97119.55;109822;1250;68838;-71
2022/05/25 00:52:23;;;;;;;;;;;;;;;10.29;81.66;97114.05;109765;1251;59691;-72
2022/05/25 00:54:59;;;;;;;8.10;6.40;;;;;;;10.34;82.97;97112.39;109965;1250;59756;-71
2022/05/25 00:57:40;;;;;;;6.90;5.50;;;;;;;10.37;81.70;97105.20;109880;1250;69974;-68
2022/05/25 01:00:24;;;;;;;6.70;4.90;;;;;;;10.38;80.79;97100.39;109739;1251;66803;-68
2022/05/25 01:03:04;;;;;;;7.40;4.90;;;;;;;10.39;81.64;97103.44;109865;1250;69320;-71
2022/05/25 01:06:01;;;;;;;6.20;4.70;;;;;;;10.41;80.19;97103.19;109824;1251;59760;-72
2022/05/25 01:08:46;;;;;;;6.50;4.60;;;;;;;10.39;78.63;97106.09;109748;1250;59667;-71
2022/05/25 01:11:37;;;;;;;8.00;6.20;;;;;;;10.37;78.94;97102.59;110002;1250;71356;-73
2022/05/25 01:14:15;;;;;;;;;;;;;;;10.34;80.70;97104.69;110048;1250;69065;-68
2022/05/25 01:17:26;;;;;;;8.00;5.70;;;;;;;10.33;81.31;97106.90;109952;1250;68847;-68
2022/05/25 01:20:26;;;;;;;5.50;4.30;;;;;;;10.34;79.22;97108.58;109912;1250;59617;-68
2022/05/25 01:23:41;;;;;;;8.20;6.20;;;;;;;10.35;78.98;97114.59;109831;1251;59719;-68
2022/05/25 01:26:33;;;;;;;6.50;4.90;;;;;;;10.36;81.72;97119.36;109982;1250;71523;-68
2022/05/25 01:29:09;;;;;;;6.20;4.20;;;;;;;10.38;81.27;97120.11;110006;1250;67623;-68
2022/05/25 01:31:50;;;;;;;5.80;4.50;;;;;;;10.38;80.21;97115.92;109982;1250;69416;-69
2022/05/25 01:34:40;;;;;;;7.60;4.80;;;;;;;10.38;79.34;97118.55;109998;1250;59710;-67
2022/05/25 01:37:32;;;;;;;6.40;4.90;;;;;;;10.37;80.50;97122.61;109996;1250;59768;-68
2022/05/25 01:40:33;;;;;;;6.40;5.30;;;;;;;10.36;80.69;97124.45;110053;1249;71415;-68
2022/05/25 01:43:14;;;;;;;7.10;5.70;;;;;;;10.33;80.78;97122.23;110032;1250;66683;-76
2022/05/25 01:45:55;;;;;;;8.60;6.00;;;;;;;10.31;79.74;97118.91;109773;1251;69467;-72
2022/05/25 01:48:28;;;;;;;6.00;5.30;;;;;;;10.30;81.11;97115.68;109964;1251;59774;-68
2022/05/25 01:51:05;;;;;;;6.60;5.20;;;;;;;10.28;81.20;97114.27;109985;1249;59689;-75
2022/05/25 01:53:41;;;;;;;5.90;4.90;;;;;;;10.28;80.74;97113.55;109808;1250;71543;-69
2022/05/25 01:56:15;;;;;;;7.30;4.40;;;;;;;10.29;80.08;97112.12;110107;1250;67675;-68
2022/05/25 01:58:52;;;;;;;4.90;4.30;;;;;;;10.29;79.15;97115.95;109988;1249;69784;-68
2022/05/25 02:01:24;;;;;;;4.90;3.40;;;;;;;10.29;79.04;97114.92;109998;1250;59784;-68
2022/05/25 02:06:52;;;;;;;5.90;4.20;;;;;;;10.26;77.48;97112.30;110011;1250;70061;-68
2022/05/25 02:09:40;;;;;;;6.60;5.00;;;;;;;10.24;78.17;97122.59;109950;1250;67772;-67
2022/05/25 02:12:29;;;;;;;8.30;5.80;;;;;;;10.21;81.26;97130.07;109973;1250;69399;-67
2022/05/25 02:15:43;;;;;;;5.90;5.00;;;;;;;10.19;82.15;97133.49;110005;1249;59744;-69
2022/05/25 02:18:39;;;;;;;4.90;3.90;;;;;;;10.18;78.81;97129.25;109758;1250;60046;-71
2022/05/25 02:21:24;;;;;;;4.70;3.90;;;;;;;10.21;78.70;97130.27;109778;1250;70509;-68
2022/05/25 02:23:57;;;;;;;6.60;5.40;;;;;;;10.23;78.90;97128.52;109962;1250;67637;-67
2022/05/25 02:26:32;;;;;;;5.90;5.00;;;;;;;10.25;80.12;97129.64;109978;1250;69343;-68
2022/05/25 02:29:37;;;;;;;6.70;4.80;;;;;;;10.27;79.86;97127.94;109996;1250;59692;-68
2022/05/25 02:32:22;;;;;;;5.90;4.10;;;;;;;10.27;78.74;97132.65;109436;1256;59660;-69
2022/05/25 02:34:54;;;;;;;6.50;4.60;;;;;;;10.27;79.61;97138.20;109476;1256;71534;-67
2022/05/25 02:37:29;;;;;;;7.50;5.00;;;;;;;10.24;79.65;97143.09;109489;1256;68680;-67
2022/05/25 02:40:02;;;;;;;7.70;5.70;;;;;;;10.22;80.48;97146.79;109399;1256;68649;-67
2022/05/25 02:42:32;;;;;;;8.30;7.00;;;;;;;10.13;80.85;97147.87;109249;1256;59804;-66
2022/05/25 02:45:01;;;;;;;6.50;5.60;;;;;;;10.02;79.77;97151.14;109458;1256;59808;-67
2022/05/25 02:47:31;;;;;;;7.30;6.00;;;;;;;9.88;81.25;97157.92;109262;1257;70856;-67
2022/05/25 02:50:01;;;;;;;;;;;;;;;9.81;80.95;97159.05;109463;1256;67798;-69
2022/05/25 02:52:31;;;;;;;6.40;4.80;;;;;;;9.75;81.21;97156.16;109402;1256;69799;-69
2022/05/25 02:55:02;;;;;;;6.20;5.30;;;;;;;9.74;80.97;97153.60;109379;1256;59728;-68
2022/05/25 02:57:32;;;;;;;7.60;5.90;;;;;;;9.75;83.06;97155.95;109295;1257;59722;-67
2022/05/25 03:00:04;;;;;;;7.80;6.00;;;;;;;9.76;83.36;97151.52;109443;1256;70842;-68
2022/05/25 03:02:35;;;;;;;8.40;6.40;;;;;;;9.75;83.41;97150.04;109345;1256;67622;-68
2022/05/25 03:05:07;;;;;;;7.60;6.70;;;;;;;9.70;82.59;97147.77;109428;1256;68640;-69
2022/05/25 03:07:37;;;;;;;7.10;5.70;;;;;;;9.63;82.11;97143.24;109596;1250;59690;-69
2022/05/25 03:10:07;;;;;;;6.60;5.80;;;;;;;9.60;83.01;97140.70;110146;1249;59675;-70
2022/05/25 03:12:37;;;;;;;8.00;5.80;;;;;;;9.62;82.92;97144.05;109896;1250;71508;-67
2022/05/25 03:15:07;;;;;;;7.60;5.60;;;;;;;9.66;83.47;97147.60;110003;1250;68646;-68
2022/05/25 03:17:37;;;;;;;6.30;5.30;;;;;;;9.69;84.14;97149.38;109995;1249;69396;-67
2022/05/25 03:20:07;;;;;;;7.10;5.40;;;;;;;9.76;84.28;97148.45;109963;1250;59742;-68
2022/05/25 03:22:39;;;;;;;6.40;5.20;;;;;;;9.82;82.93;97147.66;109968;1250;59691;-70
2022/05/25 03:25:09;;;;;;;5.60;4.40;;;;;;;9.90;80.44;97144.44;110188;1250;71335;-71
2022/05/25 03:27:39;;;;;;;6.70;5.50;;;;;;;9.98;80.00;97147.45;110058;1250;68520;-68
2022/05/25 03:30:09;;;;;;;6.30;5.30;;;;;;;10.05;80.03;97150.98;110035;1249;69847;-69
2022/05/25 03:32:38;;;;;;;6.90;5.30;;;;;;;10.12;79.51;97156.37;109967;1250;59676;-69
2022/05/25 03:35:10;;;;;;;9.20;6.30;;;;;;;10.19;79.38;97162.28;110142;1249;59741;-70
2022/05/25 03:37:39;;;;;;;10.90;7.90;;;;;;;10.23;79.25;97164.27;110126;1249;71356;-67
2022/05/25 03:40:11;;;;;;;7.60;6.00;;;;;;;10.27;79.71;97170.23;109772;1249;68477;-70
2022/05/25 03:42:42;;;;;;;8.70;6.60;;;;;;;10.34;79.50;97169.55;110143;1249;69445;-68
2022/05/25 03:45:14;;;;;;;11.30;7.40;;;;;;;10.41;80.46;97172.66;109998;1250;59774;-68
2022/05/25 03:47:49;;;;;;;10.70;8.50;;;;;;;10.51;80.47;97173.15;109906;1250;60088;-72
2022/05/25 03:50:19;;;;;;;9.00;7.50;;;;;;;10.59;80.84;97174.95;110118;1250;71612;-67
2022/05/25 03:52:49;;;;;;;10.20;7.50;;;;;;;10.69;81.14;97174.35;110149;1250;68524;-67
2022/05/25 03:55:18;;;;;;;11.10;7.40;;;;;;;10.81;81.05;97168.91;110168;1248;69430;-72
2022/05/25 03:57:47;;;;;;;10.40;7.70;;;;;;;10.93;79.37;97170.61;110126;1250;59689;-69
2022/05/25 04:00:17;;;;;;;10.40;7.40;;;;;;;11.02;78.51;97173.39;109928;1250;59754;-67
2022/05/25 04:02:47;;;;;;;13.40;8.60;;;;;;;11.09;79.48;97179.23;109853;1250;71882;-69
2022/05/25 04:05:16;;;;;;;9.80;6.70;;;;;;;11.17;79.72;97188.02;110122;1249;67602;-68
2022/05/25 04:07:48;;;;;;;10.20;6.40;;;;;;;11.29;78.72;97190.44;110108;1249;69398;-67
2022/05/25 04:10:19;;;;;;;8.70;6.80;;;;;;;11.42;78.34;97191.31;109961;1250;59686;-68
2022/05/25 04:12:49;;;;;;;16.30;9.30;;;;;;;11.53;78.66;97187.77;110197;1249;59677;-71
2022/05/25 04:15:22;;;;;;;10.60;8.70;;;;;;;11.57;78.91;97183.63;110194;1249;70661;-69
2022/05/25 04:17:52;;;;;;;9.80;8.00;;;;;;;11.64;78.72;97187.04;110154;1248;68621;-69
2022/05/25 04:20:23;;;;;;;12.80;9.40;;;;;;;11.76;78.10;97188.94;109985;1249;68673;-67
2022/05/25 04:22:52;;;;;;;10.80;8.10;;;;;;;11.86;78.11;97189.85;109925;1250;59665;-69
2022/05/25 04:25:24;;;;;;;10.00;7.50;;;;;;;11.94;77.94;97188.83;109958;1250;59728;-70
2022/05/25 04:27:54;;;;;;;10.80;7.10;;;;;;;12.05;77.94;97187.23;110150;1248;71507;-67
2022/05/25 04:30:27;;;;;;;11.50;7.10;;;;;;;12.18;77.50;97180.77;109837;1250;68035;-70
2022/05/25 04:32:56;;;;;;;8.40;6.10;;;;;;;12.31;76.88;97180.61;110123;1250;68460;-74
2022/05/25 04:35:26;;;;;;;8.40;6.80;;;;;;;12.42;76.40;97176.81;109745;1251;59703;-66
2022/05/25 04:37:56;;;;;;;11.70;7.30;;;;;;;12.53;76.03;97169.83;110143;1249;59675;-70
2022/05/25 04:40:30;;;;;;;8.30;6.50;;;;;;;12.64;75.86;97170.66;110152;1249;71567;-69
2022/05/25 04:43:03;;;;;;;8.50;6.90;;;;;;;12.76;75.81;97169.27;110174;1249;68184;-69
2022/05/25 04:45:33;;;;;;;8.90;6.10;;;;;;;12.90;75.54;97164.73;110005;1250;69433;-69
2022/05/25 04:48:02;;;;;;;8.00;6.40;;;;;;;13.08;75.18;97166.30;109912;1249;59712;-68
2022/05/25 04:50:35;;;;;;;10.90;8.20;;;;;;;13.27;74.46;97168.22;110171;1250;59719;-69
2022/05/25 04:53:04;;;;;;;10.60;7.80;;;;;;;13.41;75.34;97164.86;109989;1250;71372;-68
2022/05/25 04:58:24;;;;;;;10.40;7.60;;;;;;;13.62;74.06;97167.75;110131;1249;68456;-68
2022/05/25 05:00:54;;;;;;;11.90;7.50;;;;;;;13.71;73.48;97172.02;110084;1250;59726;-67
2022/05/25 05:03:25;;;;;;;10.40;7.70;;;;;;;13.92;73.48;97179.45;109865;1250;59669;-68
2022/05/25 05:05:55;;;;;;;11.20;7.70;;;;;;;14.11;72.24;97190.48;110174;1250;71016;-71
2022/05/25 05:08:25;;;;;;;8.50;6.40;;;;;;;14.30;71.04;97193.29;110177;1249;67694;-70
2022/05/25 05:10:55;;;;;;;9.90;7.40;;;;;;;14.71;70.50;97193.77;110201;1249;69441;-69
2022/05/25 05:13:24;;;;;;;9.60;7.80;;;;;;;15.20;70.47;97190.91;110169;1250;59667;-71
2022/05/25 05:15:54;;;;;;;9.20;7.00;;;;;;;15.60;67.64;97190.20;110127;1249;59663;-68
2022/05/25 05:18:23;;;;;;;7.30;6.40;;;;;;;15.86;65.11;97190.38;110096;1248;70588;-70
2022/05/25 05:21:13;;;;;;;10.30;6.10;;;;;;;16.38;65.81;97197.35;110137;1248;68690;-72
2022/05/25 05:23:43;;;;;;;7.30;5.50;;;;;;;16.75;63.26;97198.06;109944;1250;68733;-70
2022/05/25 05:26:13;;;;;;;7.70;6.00;;;;;;;16.93;61.04;97201.02;110130;1249;59673;-69
2022/05/25 05:28:42;;;;;;;8.50;5.80;;;;;;;17.12;60.35;97202.50;110140;1250;59726;-74
2022/05/25 05:31:14;;;;;;;6.10;4.90;;;;;;;17.40;60.27;97202.10;109775;1251;71549;-73
2022/05/25 05:33:43;;;;;;;6.00;5.20;;;;;;;17.50;59.35;97201.28;109847;1249;67813;-70
2022/05/25 05:36:25;;;;;;;8.60;5.70;;;;;;;17.68;59.32;97207.43;109927;1250;69439;-71
2022/05/25 05:39:01;;;;;;;6.90;5.50;;;;;;;17.70;58.68;97212.27;109878;1249;59770;-70
2022/05/25 05:41:39;;;;;;;8.40;5.10;;;;;;;17.70;59.43;97219.96;109928;1250;59742;-73
2022/05/25 05:44:11;;;;;;;8.60;5.90;;;;;;;17.73;59.32;97222.78;109987;1249;69738;-71
2022/05/25 05:46:42;;;;;;;6.70;4.90;;;;;;;17.60;58.43;97222.83;109935;1250;67853;-74
2022/05/25 05:49:13;;;;;;;5.50;4.80;;;;;;;17.46;58.17;97226.17;109844;1250;69185;-70
2022/05/25 05:51:44;;;;;;;6.40;4.50;;;;;;;17.39;58.03;97225.85;110035;1250;59741;-70
2022/05/25 05:54:13;;;;;;;6.00;4.80;;;;;;;17.42;58.71;97229.10;109901;1250;59735;-68
2022/05/25 05:56:43;;;;;;;7.50;6.00;;;;;;;17.56;58.89;97230.77;109912;1250;71348;-72
2022/05/25 05:59:12;;;;;;;;;;;;;;;17.65;58.05;97234.74;109975;1250;67817;-71
2022/05/25 06:01:42;;;;;;;5.00;4.40;;;;;;;17.67;57.38;97234.88;109947;1249;69469;-71
2022/05/25 06:04:12;;;;;;;5.70;4.50;;;;;;;17.84;57.20;97229.80;109980;1250;59767;-68
2022/05/25 06:06:42;;;;;;;6.00;4.60;;;;;;;18.22;56.41;97229.80;109984;1250;59625;-70
2022/05/25 06:09:11;;;;;;;6.70;5.00;;;;;;;18.66;56.28;97225.63;109878;1250;69851;-74
2022/05/25 06:11:41;;;;;;;6.10;4.50;;;;;;;18.88;54.89;97229.40;109803;1251;67853;-70
2022/05/25 06:14:11;;;;;;;5.40;4.20;;;;;;;19.09;54.96;97232.77;109839;1250;69540;-73
2022/05/25 06:19:33;;;;;;;6.60;4.90;;;;;;;19.46;53.06;97232.15;109837;1250;59739;-71
2022/05/25 06:22:10;;;;;;;6.20;4.80;;;;;;;19.56;52.78;97229.15;109894;1250;70729;-74
2022/05/25 06:24:42;;;;;;;5.50;4.00;;;;;;;19.77;51.77;97233.64;109983;1250;66820;-70
2022/05/25 06:27:12;;;;;;;6.10;4.40;;;;;;;20.00;50.43;97240.77;109336;1250;675058;-74
2022/05/25 06:29:43;;;;;;;5.10;4.10;;;;;;;20.25;50.37;97236.06;109806;1250;59692;-69
2022/05/25 06:32:16;;;;;;;4.50;3.60;;;;;;;20.88;49.31;97233.44;110038;1250;59669;-73
2022/05/25 06:34:49;;;;;;;6.30;4.50;;;;;;;21.09;47.25;97232.73;109811;1250;71561;-70
2022/05/25 06:37:23;;;;;;;5.10;3.90;;;;;;;20.87;46.99;97234.55;109718;1251;68497;-67
2022/05/25 06:39:52;;;;;;;4.40;4.00;;;;;;;20.95;47.34;97240.17;109809;1250;68793;-70
2022/05/25 06:42:22;;;;;;;5.20;3.90;;;;;;;20.86;47.34;97242.48;109761;1250;59683;-70
2022/05/25 06:44:54;;;;;;;7.10;4.50;;;;;;;20.96;46.77;97249.34;109760;1250;59595;-71
2022/05/25 06:47:23;;;;;;;4.80;4.00;;;;;;;21.00;46.89;97252.47;110010;1250;71599;-71
2022/05/25 06:49:54;;;;;;;4.40;3.90;;;;;;;21.42;46.46;97257.82;109867;1250;68099;-72
2022/05/25 06:52:23;;;;;;;7.10;4.40;;;;;;;21.76;45.72;97256.09;109747;1250;67663;-74
2022/05/25 06:54:56;;;;;;;;;;;;;;;21.72;46.22;97252.48;109871;1251;59697;-70
2022/05/25 06:57:25;;;;;;;4.30;3.70;;;;;;;21.68;45.26;97258.52;109869;1250;59740;-71
2022/05/25 06:59:55;;;;;;;4.30;3.90;;;;;;;22.00;44.21;97258.30;109668;1250;71959;-73
2022/05/25 07:02:24;;;;;;;;;;;;;;;22.08;43.70;97266.72;110029;1249;67623;-73
2022/05/25 07:04:54;;;;;;;5.10;4.10;;;;;;;22.18;43.06;97272.20;109912;1250;69521;-72
2022/05/25 07:07:24;;;;;;;4.00;3.50;;;;;;;22.19;42.97;97280.98;109951;1250;60263;-69
2022/05/25 07:09:53;;;;;;;5.80;4.40;;;;;;;22.54;42.90;97283.08;109930;1250;59677;-75
2022/05/25 07:12:22;;;;;;;5.90;3.90;;;;;;;22.52;42.62;97290.95;109792;1250;71575;-77
2022/05/25 07:14:51;;;;;;;7.00;4.40;;;;;;;22.72;42.03;97294.71;110001;1250;68423;-75
2022/05/25 07:17:20;;;;;;;7.20;4.70;;;;;;;23.11;41.71;97298.86;109985;1250;68679;-71
2022/05/25 07:19:49;;;;;;;4.70;4.20;;;;;;;23.45;41.26;97295.65;109942;1250;59764;-76
2022/05/25 07:22:20;;;;;;;9.00;5.20;;;;;;;23.77;40.48;97296.52;109987;1250;59709;-69
2022/05/25 07:24:49;;;;;;;6.00;4.80;;;;;;;23.15;41.12;97299.21;109959;1250;71626;-68
2022/05/25 07:27:18;;;;;;;4.70;4.20;;;;;;;23.02;41.53;97295.47;109956;1250;69121;-72
2022/05/25 07:29:47;;;;;;;5.00;4.40;;;;;;;23.02;41.38;97294.36;109993;1250;68698;-74
2022/05/25 07:32:19;;;;;;;6.30;4.20;;;;;;;23.00;41.95;97292.80;110071;1250;59683;-71
2022/05/25 07:35:04;;;;;;;5.90;5.00;;;;;;;23.76;41.02;97297.70;110016;1250;59618;-69
2022/05/25 07:37:38;;;;;;;5.80;4.20;;;;;;;24.10;39.75;97292.19;110124;1250;71603;-69
2022/05/25 07:40:12;;;;;;;5.90;5.30;;;;;;;24.10;39.05;97288.52;110032;1250;68707;-74
2022/05/25 07:42:46;;;;;;;4.90;4.40;;;;;;;24.16;39.14;97293.98;110177;1248;69705;-77
2022/05/25 07:45:15;;;;;;;5.70;4.70;;;;;;;24.48;38.32;97289.25;110149;1250;60219;-72
2022/05/25 07:47:44;;;;;;;4.80;4.00;;;;;;;24.88;37.52;97286.00;109838;1251;59755;-73
2022/05/25 07:50:13;;;;;;;5.90;4.60;;;;;;;25.21;36.95;97285.77;109818;1250;71018;-71
2022/05/25 07:52:42;;;;;;;4.50;4.00;;;;;;;25.32;37.04;97286.02;109957;1250;68565;-73
2022/05/25 07:55:12;;;;;;;4.90;4.20;;;;;;;25.64;35.52;97286.50;109902;1250;69437;-72
2022/05/25 07:57:41;;;;;;;5.10;4.20;;;;;;;25.59;34.56;97287.54;110133;1249;59757;-72
2022/05/25 08:00:11;;;;;;;6.80;4.20;;;;;;;25.55;34.70;97286.27;109880;1250;59766;-79
2022/05/25 08:05:47;;;;;;;7.90;4.50;;;;;;;26.00;35.29;97277.09;110108;1249;67770;-72
2022/05/25 08:08:24;;;;;;;4.70;4.30;;;;;;;26.20;34.83;97272.66;110016;1250;69351;-84
2022/05/25 08:11:11;;;;;;;6.60;4.50;;;;;;;26.19;34.38;97269.63;109949;1250;59717;-81
2022/05/25 08:13:46;;;;;;;4.60;4.00;;;;;;;26.26;34.68;97274.55;109970;1250;59698;-77
2022/05/25 08:16:15;;;;;;;4.10;3.40;;;;;;;26.39;33.98;97278.14;110098;1249;72178;-77
2022/05/25 08:18:44;;;;;;;5.40;4.90;;;;;;;26.47;33.85;97277.19;110189;1249;67759;-78
2022/05/25 08:21:13;;;;;;;4.90;4.10;;;;;;;26.17;34.82;97276.89;110138;1249;68654;-74
2022/05/25 08:24:02;;;;;;;4.60;4.20;;;;;;;26.08;34.97;97279.27;109992;1250;59744;-77
2022/05/25 08:26:31;;;;;;;5.20;4.40;;;;;;;26.40;34.09;97276.26;110134;1248;59673;-76
2022/05/25 08:29:00;;;;;;;6.30;4.30;;;;;;;26.23;34.26;97278.60;109873;1250;71643;-74
2022/05/25 08:31:29;;;;;;;5.60;3.80;;;;;;;25.79;35.54;97278.34;109813;1250;67831;-72
2022/05/25 08:33:59;;;;;;;5.00;4.50;;;;;;;25.90;35.02;97274.53;109911;1250;69259;-71
2022/05/25 08:36:27;;;;;;;;;;;;;;;25.90;35.74;97269.47;109839;1250;59676;-77
2022/05/25 08:38:57;;;;;;;;;;;;;;;26.37;35.08;97264.10;109968;1250;59754;-75
2022/05/25 08:41:31;;;;;;;3.90;3.10;;;;;;;26.67;34.70;97265.61;109877;1250;70873;-76
2022/05/25 08:44:02;;;;;;;5.20;3.40;;;;;;;27.48;33.25;97254.15;109944;1250;68633;-80
2022/05/25 08:46:32;;;;;;;4.20;3.10;;;;;;;27.88;32.10;97241.39;109938;1249;68833;-74
2022/05/25 08:49:03;;;;;;;4.00;3.20;;;;;;;28.13;32.18;97228.20;109825;1250;59692;-74
2022/05/25 08:51:49;;;;;;;4.50;3.50;;;;;;;28.39;32.75;97226.09;109911;1250;59689;-71
2022/05/25 08:54:20;;;;;;;7.20;3.90;;;;;;;28.77;31.77;97225.75;109785;1251;70613;-75
2022/05/25 08:56:58;;;;;;;3.20;2.90;;;;;;;28.94;31.30;97230.79;109905;1250;68602;-77
2022/05/25 08:59:35;;;;;;;4.20;3.30;;;;;;;28.71;31.09;97224.48;109875;1250;69447;-77
2022/05/25 09:02:16;;;;;;;4.60;3.60;;;;;;;28.47;31.49;97216.30;109949;1249;59647;-73
2022/05/25 09:05:16;;;;;;;4.60;3.70;;;;;;;28.40;31.27;97213.38;109995;1250;59761;-75
2022/05/25 09:08:01;;;;;;;3.80;3.30;;;;;;;28.38;31.68;97209.89;109888;1250;70891;-80
2022/05/25 09:10:36;;;;;;;4.00;3.50;;;;;;;28.38;31.97;97211.05;109921;1250;67805;-77
2022/05/25 09:13:18;;;;;;;5.90;4.00;;;;;;;28.67;31.82;97217.02;109911;1250;69125;-82
2022/05/25 09:18:49;;;;;;;4.80;4.30;;;;;;;28.76;32.38;97226.52;110015;1249;59666;-84
2022/05/25 09:21:22;;;;;;;6.50;4.60;;;;;;;28.81;32.09;97228.59;109965;1250;71719;-76
2022/05/25 09:23:52;;;;;;;4.90;4.20;;;;;;;29.00;31.96;97226.38;109999;1250;68933;-70
2022/05/25 09:26:21;;;;;;;8.10;5.70;;;;;;;28.92;32.11;97223.65;109871;1250;68721;-72
2022/05/25 09:28:58;;;;;;;5.40;4.90;;;;;;;28.60;32.62;97217.74;109932;1249;60158;-69
2022/05/25 09:31:33;;;;;;;4.70;4.00;;;;;;;28.13;33.24;97219.52;109820;1250;59688;-69
2022/05/25 09:34:07;;;;;;;7.20;5.10;;;;;;;27.31;34.21;97220.95;109977;1249;71653;-68
2022/05/25 09:36:44;;;;;;;6.80;4.10;;;;;;;26.93;34.80;97220.98;109999;1249;68495;-72
2022/05/25 09:39:46;;;;;;;4.80;4.20;;;;;;;27.02;35.11;97222.23;109855;1250;69457;-68
2022/05/25 09:42:19;;;;;;;5.90;4.30;;;;;;;27.32;34.70;97222.91;109466;1256;59760;-68
2022/05/25 09:44:52;;;;;;;5.00;4.40;;;;;;;27.92;34.00;97221.98;109386;1256;59774;-67
2022/05/25 09:47:44;;;;;;;5.40;4.70;;;;;;;28.30;33.65;97220.95;109486;1256;71664;-67
2022/05/25 09:50:28;;;;;;;6.00;4.60;;;;;;;27.98;33.08;97219.11;109377;1256;68689;-65
2022/05/25 09:53:01;;;;;;;5.90;4.90;;;;;;;28.08;33.74;97224.31;109458;1255;69514;-71
2022/05/25 09:55:44;;;;;;;6.60;5.10;;;;;;;28.10;34.10;97217.30;109336;1256;59797;-70
2022/05/25 09:58:45;;;;;;;5.90;5.20;;;;;;;28.00;34.27;97214.95;109421;1256;59689;-72
2022/05/25 10:01:24;;;;;;;5.30;4.60;;;;;;;27.52;35.85;97220.18;109468;1256;71132;-72
2022/05/25 10:03:53;;;;;;;;;;;;;;;27.16;35.75;97223.14;109499;1256;68587;-70
2022/05/25 10:06:24;;;;;;;7.30;5.00;;;;;;;26.96;36.05;97224.34;109608;1255;68935;-70
2022/05/25 10:09:19;;;;;;;5.90;5.30;;;;;;;26.65;36.94;97220.31;109451;1256;59774;-70
2022/05/25 10:11:57;;;;;;;5.80;4.70;;;;;;;26.45;37.31;97222.58;109476;1255;59621;-71
2022/05/25 10:14:32;;;;;;;6.10;5.20;;;;;;;26.03;37.95;97226.33;109521;1256;71977;-67
2022/05/25 10:17:07;;;;;;;5.80;5.20;;;;;;;25.66;38.23;97228.39;109436;1257;68596;-70
2022/05/25 10:19:57;;;;;;;5.60;4.50;;;;;;;25.58;39.10;97226.64;109880;1250;69249;-69
2022/05/25 10:22:41;;;;;;;6.40;5.00;;;;;;;25.58;38.86;97232.48;110042;1247;59691;-75
2022/05/25 10:25:25;;;;;;;6.30;4.90;;;;;;;25.58;39.40;97226.44;110027;1250;60097;-69
2022/05/25 10:27:57;;;;;;;6.80;5.20;;;;;;;25.61;38.89;97227.38;110158;1248;71223;-67
2022/05/25 10:36:47;;;;;;;8.30;5.40;;;;;;;26.45;37.81;97215.24;110079;1250;60160;-75
2022/05/25 10:39:24;;;;;;;5.80;5.00;;;;;;;26.91;37.02;97208.79;110133;1249;59741;-71
2022/05/25 10:42:05;;;;;;;6.70;4.50;;;;;;;27.03;36.52;97203.77;110034;1250;70640;-74
2022/05/25 10:45:01;;;;;;;6.80;4.70;;;;;;;26.93;36.94;97198.45;110173;1248;68474;-68
2022/05/25 10:48:19;;;;;;;11.10;6.00;;;;;;;26.71;37.12;97198.04;110049;1249;68781;-70
2022/05/25 10:51:02;;;;;;;5.50;4.90;;;;;;;26.73;37.26;97207.66;110030;1249;59803;-72
2022/05/25 10:57:02;;;;;;;7.40;5.20;;;;;;;27.34;36.49;97200.05;110006;1249;71663;-72
2022/05/25 10:59:58;;;;;;;6.70;5.10;;;;;;;27.45;36.30;97200.17;110098;1250;68120;-74
2022/05/25 11:02:27;;;;;;;6.20;4.90;;;;;;;27.29;36.63;97203.09;110139;1249;69517;-70
2022/05/25 11:05:14;;;;;;;;;;;;;;;27.47;35.56;97206.78;110186;1249;59823;-71
2022/05/25 11:07:45;;;;;;;7.40;5.10;;;;;;;27.21;36.35;97200.11;110211;1248;59687;-74
2022/05/25 11:10:47;;;;;;;6.50;5.20;;;;;;;26.96;36.59;97201.85;110149;1249;70834;-71
2022/05/25 11:13:29;;;;;;;6.40;5.40;;;;;;;26.99;36.07;97198.81;110140;1250;68777;-76
2022/05/25 11:16:35;;;;;;;5.80;5.00;;;;;;;26.79;36.41;97197.34;110148;1249;69450;-73
2022/05/25 11:19:45;;;;;;;6.30;5.50;;;;;;;26.78;36.52;97202.34;110123;1248;59750;-74
2022/05/25 11:22:37;;;;;;;5.40;4.60;;;;;;;26.83;36.80;97202.34;110196;1250;59750;-73
2022/05/25 11:25:31;;;;;;;6.80;4.80;;;;;;;26.68;37.14;97196.45;110015;1250;70791;-73
2022/05/25 11:28:22;;;;;;;5.00;4.50;;;;;;;26.27;37.22;97195.32;110053;1250;66958;-75
2022/05/25 11:31:04;;;;;;;5.00;4.50;;;;;;;26.62;37.15;97191.91;109950;1250;69330;-71
2022/05/25 11:33:54;;;;;;;7.40;5.70;;;;;;;27.04;37.22;97186.36;109973;1250;59717;-67
2022/05/25 11:37:18;;;;;;;6.90;5.60;;;;;;;27.16;37.02;97181.34;110157;1249;59696;-69
2022/05/25 11:39:55;;;;;;;7.50;5.40;;;;;;;26.76;37.72;97177.23;110122;1249;71298;-69
2022/05/25 11:42:39;;;;;;;6.40;5.00;;;;;;;26.60;37.93;97180.09;110148;1249;67646;-67
2022/05/25 11:45:14;;;;;;;5.50;4.50;;;;;;;26.82;36.89;97171.69;110139;1249;68742;-66
2022/05/25 11:48:04;;;;;;;5.60;5.10;;;;;;;27.10;37.11;97168.33;110134;1249;59685;-71
2022/05/25 11:51:08;;;;;;;5.60;4.90;;;;;;;27.03;36.92;97169.77;110152;1249;59753;-73
2022/05/25 11:53:56;;;;;;;6.30;5.00;;;;;;;26.99;36.73;97171.14;109824;1250;71652;-69
2022/05/25 11:56:46;;;;;;;5.70;4.10;;;;;;;27.31;37.13;97160.78;110172;1249;68459;-73
2022/05/25 11:59:34;;;;;;;5.20;4.40;;;;;;;27.84;37.16;97160.29;110124;1248;69433;-67
2022/05/25 12:02:37;;;;;;;7.10;5.00;;;;;;;28.15;35.63;97159.27;110125;1250;59700;-67
2022/05/25 12:05:29;;;;;;;6.70;5.00;;;;;;;27.90;35.47;97161.29;109888;1250;59758;-66
2022/05/25 12:08:31;;;;;;;6.00;4.90;;;;;;;27.54;35.81;97160.88;110095;1249;71677;-68
2022/05/25 12:11:11;;;;;;;5.70;4.60;;;;;;;27.69;35.80;97162.33;109933;1250;67285;-69
2022/05/25 12:13:57;;;;;;;6.00;4.90;;;;;;;27.84;35.47;97155.70;109772;1250;69776;-67
2022/05/25 12:16:37;;;;;;;5.20;4.30;;;;;;;27.54;35.78;97158.95;110041;1249;59732;-70
2022/05/25 12:19:25;;;;;;;9.70;5.70;;;;;;;27.05;35.87;97155.55;110155;1250;59639;-68
2022/05/25 12:22:00;;;;;;;5.80;4.70;;;;;;;27.02;36.15;97153.05;110171;1249;71729;-65
2022/05/25 12:24:35;;;;;;;7.00;4.40;;;;;;;27.29;35.83;97153.83;110179;1249;68685;-69
2022/05/25 12:27:09;;;;;;;5.60;4.60;;;;;;;27.48;35.65;97142.92;110118;1249;68687;-68
2022/05/25 12:29:43;;;;;;;7.50;5.10;;;;;;;27.70;35.60;97138.85;110135;1249;59742;-66
2022/05/25 12:32:13;;;;;;;6.20;4.80;;;;;;;27.79;36.57;97135.48;109985;1249;59759;-68
2022/05/25 12:34:48;;;;;;;6.80;5.40;;;;;;;28.13;36.11;97132.40;109973;1250;70778;-67
2022/05/25 12:37:33;;;;;;;6.90;4.90;;;;;;;28.15;35.28;97127.52;109951;1249;67857;-68